createdAt,value
2023-03-02T00:01:31.079Z,101578.78
2023-03-02T00:04:01.324Z,101590.06
2023-03-02T00:06:32.004Z,101582.97
2023-03-02T00:09:03.330Z,101579.47
2023-03-02T00:11:31.573Z,101583.75
2023-03-02T00:13:58.209Z,101582.97
2023-03-02T00:16:25.754Z,101587.38
2023-03-02T00:18:52.351Z,101586.44
2023-03-02T00:21:18.830Z,101581.16
2023-03-02T00:23:45.386Z,101579.25
2023-03-02T00:26:11.831Z,101583.75
2023-03-02T00:28:38.865Z,101578.53
2023-03-02T00:31:06.228Z,101588.94
2023-03-02T00:33:33.518Z,101577.53
2023-03-02T00:36:00.360Z,101574.94
2023-03-02T00:38:30.428Z,101580.84
2023-03-02T00:40:57.044Z,101573.81
2023-03-02T00:43:27.896Z,101572.94
2023-03-02T00:45:55.127Z,101585.94
2023-03-02T00:48:22.207Z,101575.41
2023-03-02T00:50:48.687Z,101579.63
2023-03-02T00:53:15.316Z,101576.78
2023-03-02T00:55:42.961Z,101582.78
2023-03-02T00:58:09.472Z,101578.34
2023-03-02T01:00:37.260Z,101573.84
2023-03-02T01:03:06.327Z,101580.63
2023-03-02T01:05:37.456Z,101585.84
2023-03-02T01:08:04.507Z,101581.31
2023-03-02T01:10:32.389Z,101569.13
2023-03-02T01:12:58.854Z,101573.31
2023-03-02T01:15:25.503Z,101570.69
2023-03-02T01:17:52.416Z,101571.63
2023-03-02T01:20:18.969Z,101564.59
2023-03-02T01:22:45.544Z,101562.81
2023-03-02T01:25:13.469Z,101560.97
2023-03-02T01:27:39.961Z,101556.47
2023-03-02T01:30:07.340Z,101551.94
2023-03-02T01:32:33.847Z,101550.94
2023-03-02T01:35:00.421Z,101549.03
2023-03-02T01:37:26.964Z,101557.50
2023-03-02T01:39:53.431Z,101551.28
2023-03-02T01:42:19.964Z,101544.31
2023-03-02T01:44:57.101Z,101543.28
2023-03-02T01:47:38.670Z,101538.88
2023-03-02T01:50:23.278Z,101547.47
2023-03-02T01:52:55.159Z,101545.78
2023-03-02T01:55:25.592Z,101532.66
2023-03-02T01:57:55.102Z,101540.44
2023-03-02T02:00:28.709Z,101538.66
2023-03-02T02:03:08.936Z,101532.53
2023-03-02T02:05:38.752Z,101541.34
2023-03-02T02:08:05.858Z,101531.88
2023-03-02T02:10:34.070Z,101523.06
2023-03-02T02:13:01.215Z,101529.06
2023-03-02T02:15:27.781Z,101518.53
2023-03-02T02:17:55.607Z,101523.63
2023-03-02T02:20:32.639Z,101527.03
2023-03-02T02:23:08.212Z,101526.03
2023-03-02T02:26:18.441Z,101526.78
2023-03-02T02:28:57.576Z,101533.47
2023-03-02T02:31:33.602Z,101535.94
2023-03-02T02:34:11.008Z,101533.34
2023-03-02T02:36:42.346Z,101532.59
2023-03-02T02:39:19.085Z,101539.47
2023-03-02T02:41:48.149Z,101522.84
2023-03-02T02:44:18.206Z,101535.75
2023-03-02T02:46:45.144Z,101526.13
2023-03-02T02:49:28.427Z,101538.34
2023-03-02T02:51:55.054Z,101525.81
2023-03-02T02:54:23.103Z,101523.06
2023-03-02T02:56:51.907Z,101514.25
2023-03-02T02:59:29.015Z,101518.97
2023-03-02T03:01:59.672Z,101524.84
2023-03-02T03:04:30.381Z,101526.28
2023-03-02T03:07:02.427Z,101526.81
2023-03-02T03:09:30.063Z,101513.25
2023-03-02T03:12:20.566Z,101509.94
2023-03-02T03:14:47.989Z,101514.56
2023-03-02T03:17:14.969Z,101514.09
2023-03-02T03:19:48.731Z,101509.25
2023-03-02T03:22:17.123Z,101505.06
2023-03-02T03:24:46.270Z,101508.75
2023-03-02T03:27:16.106Z,101513.25
2023-03-02T03:29:48.060Z,101515.19
2023-03-02T03:32:17.382Z,101514.25
2023-03-02T03:34:44.893Z,101519.66
2023-03-02T03:37:26.939Z,101518.78
2023-03-02T03:39:53.463Z,101516.28
2023-03-02T03:42:20.648Z,101510.38
2023-03-02T03:44:47.538Z,101513.13
2023-03-02T03:47:14.796Z,101526.13
2023-03-02T03:49:41.524Z,101526.22
2023-03-02T03:52:09.165Z,101527.09
2023-03-02T03:54:35.760Z,101532.53
2023-03-02T03:57:02.493Z,101530.13
2023-03-02T03:59:29.008Z,101525.13
2023-03-02T04:02:03.277Z,101520.94
2023-03-02T04:04:41.577Z,101527.38
2023-03-02T04:07:13.282Z,101531.19
2023-03-02T04:09:40.110Z,101534.00
2023-03-02T04:12:10.927Z,101529.00
2023-03-02T04:14:39.516Z,101525.72
2023-03-02T04:17:07.666Z,101528.41
2023-03-02T04:19:38.037Z,101525.81
2023-03-02T04:22:05.193Z,101520.69
2023-03-02T04:24:33.849Z,101531.25
2023-03-02T04:27:02.962Z,101533.84
2023-03-02T04:29:32.367Z,101532.22
2023-03-02T04:32:00.445Z,101529.63
2023-03-02T04:34:28.526Z,101527.72
2023-03-02T04:36:55.395Z,101525.91
2023-03-02T04:39:22.516Z,101523.44
2023-03-02T04:41:51.848Z,101527.00
2023-03-02T04:44:19.198Z,101522.81
2023-03-02T04:46:47.421Z,101529.94
2023-03-02T04:49:16.496Z,101529.84
2023-03-02T04:51:45.726Z,101528.03
2023-03-02T04:54:21.785Z,101527.25
2023-03-02T04:56:48.665Z,101530.03
2023-03-02T04:59:20.276Z,101525.84
2023-03-02T05:01:47.298Z,101521.66
2023-03-02T05:04:14.596Z,101518.03
2023-03-02T05:06:41.153Z,101517.84
2023-03-02T05:09:07.873Z,101518.72
2023-03-02T05:11:34.653Z,101518.72
2023-03-02T05:14:04.020Z,101507.72
2023-03-02T05:16:33.934Z,101509.84
2023-03-02T05:19:02.376Z,101520.66
2023-03-02T05:21:30.374Z,101514.88
2023-03-02T05:24:01.185Z,101508.84
2023-03-02T05:26:27.734Z,101514.06
2023-03-02T05:28:54.226Z,101507.84
2023-03-02T05:31:24.685Z,101507.84
2023-03-02T05:33:51.159Z,101515.84
2023-03-02T05:36:19.520Z,101507.94
2023-03-02T05:38:47.348Z,101512.28
2023-03-02T05:41:14.025Z,101518.44
2023-03-02T05:43:40.702Z,101514.06
2023-03-02T05:46:07.189Z,101513.25
2023-03-02T05:48:33.736Z,101517.75
2023-03-02T05:51:00.245Z,101519.78
2023-03-02T05:53:26.694Z,101517.28
2023-03-02T05:55:53.559Z,101510.16
2023-03-02T05:58:20.484Z,101513.66
2023-03-02T06:00:48.582Z,101516.25
2023-03-02T06:03:16.522Z,101519.88
2023-03-02T06:05:43.575Z,101524.16
2023-03-02T06:08:10.271Z,101526.00
2023-03-02T06:10:36.966Z,101525.28
2023-03-02T06:13:03.856Z,101527.88
2023-03-02T06:15:30.443Z,101532.91
2023-03-02T06:17:57.893Z,101536.09
2023-03-02T06:20:24.624Z,101544.81
2023-03-02T06:22:51.107Z,101532.47
2023-03-02T06:25:21.354Z,101540.19
2023-03-02T06:27:51.465Z,101536.69
2023-03-02T06:30:20.832Z,101540.09
2023-03-02T06:32:47.570Z,101538.31
2023-03-02T06:35:14.568Z,101545.50
2023-03-02T06:37:43.975Z,101545.72
2023-03-02T06:40:12.035Z,101541.91
2023-03-02T06:42:39.819Z,101542.75
2023-03-02T06:45:07.711Z,101548.34
2023-03-02T06:47:34.294Z,101558.75
2023-03-02T06:50:01.175Z,101550.94
2023-03-02T06:52:27.792Z,101552.75
2023-03-02T06:54:55.019Z,101552.13
2023-03-02T06:57:21.576Z,101549.66
2023-03-02T06:59:48.044Z,101540.34
2023-03-02T07:02:14.567Z,101542.22
2023-03-02T07:04:42.469Z,101546.84
2023-03-02T07:07:08.956Z,101550.34
2023-03-02T07:09:35.778Z,101542.53
2023-03-02T07:12:03.714Z,101543.72
2023-03-02T07:14:30.154Z,101541.41
2023-03-02T07:16:57.653Z,101548.72
2023-03-02T07:19:24.731Z,101539.53
2023-03-02T07:21:51.669Z,101536.41
2023-03-02T07:24:18.185Z,101537.50
2023-03-02T07:26:45.772Z,101540.47
2023-03-02T07:29:12.630Z,101539.88
2023-03-02T07:31:39.320Z,101535.66
2023-03-02T07:34:05.843Z,101527.09
2023-03-02T07:36:32.279Z,101536.06
2023-03-02T07:39:01.850Z,101528.50
2023-03-02T07:41:29.904Z,101526.22
2023-03-02T07:43:56.518Z,101523.97
2023-03-02T07:46:23.036Z,101533.34
2023-03-02T07:48:49.866Z,101519.97
2023-03-02T07:51:16.353Z,101527.38
2023-03-02T07:53:42.887Z,101525.06
2023-03-02T07:56:10.926Z,101517.47
2023-03-02T07:58:40.293Z,101524.53
2023-03-02T08:01:06.819Z,101519.47
2023-03-02T08:03:33.359Z,101520.78
2023-03-02T08:06:05.601Z,101531.03
2023-03-02T08:08:32.028Z,101530.69
2023-03-02T08:11:05.241Z,101535.56
2023-03-02T08:13:31.791Z,101531.59
2023-03-02T08:16:06.631Z,101525.94
2023-03-02T08:18:34.069Z,101536.91
2023-03-02T08:21:00.694Z,101531.25
2023-03-02T08:23:27.654Z,101533.06
2023-03-02T08:25:55.099Z,101528.38
2023-03-02T08:28:22.967Z,101533.59
2023-03-02T08:30:57.634Z,101533.59
2023-03-02T08:33:24.919Z,101533.94
2023-03-02T08:35:57.040Z,101535.22
2023-03-02T08:38:24.362Z,101542.31
2023-03-02T08:40:52.612Z,101532.13
2023-03-02T08:43:20.086Z,101534.13
2023-03-02T08:45:53.955Z,101528.44
2023-03-02T08:48:23.012Z,101531.56
2023-03-02T08:51:08.154Z,101533.19
2023-03-02T08:53:39.280Z,101544.66
2023-03-02T08:56:14.349Z,101536.06
2023-03-02T08:58:40.804Z,101537.13
2023-03-02T09:01:14.096Z,101529.47
2023-03-02T09:03:40.684Z,101533.97
2023-03-02T09:06:07.329Z,101530.63
2023-03-02T09:08:33.816Z,101533.59
2023-03-02T09:11:00.330Z,101538.28
2023-03-02T09:13:26.913Z,101532.31
2023-03-02T09:15:53.522Z,101537.88
2023-03-02T09:18:20.012Z,101532.25
2023-03-02T09:20:51.446Z,101531.78
2023-03-02T09:23:18.762Z,101536.44
2023-03-02T09:25:47.623Z,101529.94
2023-03-02T09:28:15.264Z,101529.53
2023-03-02T09:30:42.475Z,101532.72
2023-03-02T09:33:08.988Z,101537.53
2023-03-02T09:35:38.518Z,101540.25
2023-03-02T09:38:05.068Z,101535.03
2023-03-02T09:40:33.818Z,101535.97
2023-03-02T09:43:22.054Z,101531.22
2023-03-02T09:46:06.311Z,101520.44
2023-03-02T09:48:55.474Z,101530.56
2023-03-02T09:51:35.144Z,101526.06
2023-03-02T09:54:15.420Z,101522.94
2023-03-02T09:56:48.378Z,101514.41
2023-03-02T09:59:20.568Z,101515.47
2023-03-02T10:01:56.229Z,101519.53
2023-03-02T10:04:26.701Z,101515.56
2023-03-02T10:07:10.522Z,101528.47
2023-03-02T10:09:37.714Z,101528.25
2023-03-02T10:12:25.543Z,101528.09
2023-03-02T10:14:54.749Z,101525.00
2023-03-02T10:17:39.327Z,101526.25
2023-03-02T10:20:17.863Z,101522.31
2023-03-02T10:22:54.481Z,101520.66
2023-03-02T10:25:33.930Z,101512.78
2023-03-02T10:28:16.089Z,101503.63
2023-03-02T10:30:44.161Z,101509.38
2023-03-02T10:33:21.634Z,101514.09
2023-03-02T10:35:50.640Z,101512.59
2023-03-02T10:38:23.177Z,101507.56
2023-03-02T10:41:00.407Z,101503.53
2023-03-02T10:43:38.437Z,101508.41
2023-03-02T10:46:07.984Z,101505.28
2023-03-02T10:48:56.309Z,101506.31
2023-03-02T10:51:37.876Z,101500.50
2023-03-02T10:54:07.096Z,101498.50
2023-03-02T10:56:34.522Z,101502.91
2023-03-02T10:59:03.651Z,101509.47
2023-03-02T11:01:31.725Z,101504.69
2023-03-02T11:04:01.434Z,101501.88
2023-03-02T11:06:29.694Z,101490.72
2023-03-02T11:09:04.357Z,101486.44
2023-03-02T11:11:31.949Z,101487.22
2023-03-02T11:14:14.307Z,101484.25
2023-03-02T11:16:41.032Z,101483.25
2023-03-02T11:19:15.502Z,101478.50
2023-03-02T11:21:58.137Z,101488.84
2023-03-02T11:24:39.275Z,101482.69
2023-03-02T11:27:26.771Z,101478.50
2023-03-02T11:30:07.242Z,101480.22
2023-03-02T11:32:48.311Z,101479.25
2023-03-02T11:35:22.779Z,101477.66
2023-03-02T11:37:52.392Z,101468.84
2023-03-02T11:40:47.343Z,101478.56
2023-03-02T11:43:14.304Z,101475.06
2023-03-02T11:45:45.953Z,101471.63
2023-03-02T11:48:22.743Z,101474.56
2023-03-02T11:50:59.901Z,101472.28
2023-03-02T11:53:55.543Z,101467.97
2023-03-02T11:56:22.990Z,101462.13
2023-03-02T11:58:59.380Z,101461.44
2023-03-02T12:01:27.363Z,101456.34
2023-03-02T12:03:55.968Z,101460.59
2023-03-02T12:06:22.368Z,101461.13
2023-03-02T12:08:52.289Z,101458.31
2023-03-02T12:11:18.689Z,101458.31
2023-03-02T12:13:54.623Z,101459.97
2023-03-02T12:16:22.669Z,101461.00
2023-03-02T12:18:51.631Z,101462.66
2023-03-02T12:21:25.630Z,101456.88
2023-03-02T12:23:52.098Z,101464.25
2023-03-02T12:26:21.385Z,101459.53
2023-03-02T12:29:11.527Z,101453.25
2023-03-02T12:31:56.515Z,101450.34
2023-03-02T12:34:36.541Z,101450.34
2023-03-02T12:37:08.267Z,101444.97
2023-03-02T12:40:11.668Z,101447.09
2023-03-02T12:43:22.996Z,101442.75
2023-03-02T12:46:29.579Z,101442.69
2023-03-02T12:49:14.384Z,101436.69
2023-03-02T12:51:50.895Z,101430.47
2023-03-02T12:54:23.413Z,101430.31
2023-03-02T12:57:01.338Z,101425.03
2023-03-02T12:59:29.153Z,101425.31
2023-03-02T13:02:13.758Z,101424.81
2023-03-02T13:04:40.678Z,101425.59
2023-03-02T13:07:15.310Z,101414.25
2023-03-02T13:09:47.746Z,101409.56
2023-03-02T13:12:21.127Z,101413.66
2023-03-02T13:14:54.035Z,101409.28
2023-03-02T13:17:31.452Z,101406.66
2023-03-02T13:20:00.025Z,101408.88
2023-03-02T13:22:28.262Z,101407.22
2023-03-02T13:25:08.230Z,101404.59
2023-03-02T13:27:35.047Z,101400.31
2023-03-02T13:30:31.277Z,101391.47
2023-03-02T13:33:06.250Z,101388.03
2023-03-02T13:35:35.998Z,101386.44
2023-03-02T13:38:23.612Z,101383.84
2023-03-02T13:40:52.297Z,101386.59
2023-03-02T13:43:34.646Z,101387.41
2023-03-02T13:46:13.681Z,101382.78
2023-03-02T13:48:40.244Z,101386.72
2023-03-02T13:51:18.512Z,101379.47
2023-03-02T13:53:58.289Z,101373.13
2023-03-02T13:56:30.466Z,101372.84
2023-03-02T13:58:57.360Z,101366.22
2023-03-02T14:01:24.469Z,101365.44
2023-03-02T14:03:50.963Z,101354.88
2023-03-02T14:06:18.822Z,101357.03
2023-03-02T14:08:46.689Z,101355.78
2023-03-02T14:11:15.861Z,101357.38
2023-03-02T14:13:49.952Z,101361.44
2023-03-02T14:16:17.088Z,101354.19
2023-03-02T14:18:52.272Z,101356.47
2023-03-02T14:21:21.234Z,101356.97
2023-03-02T14:23:48.801Z,101362.09
2023-03-02T14:26:38.040Z,101357.59
2023-03-02T14:29:16.926Z,101352.97
2023-03-02T14:31:43.522Z,101343.09
2023-03-02T14:34:13.664Z,101338.38
2023-03-02T14:36:41.710Z,101340.81
2023-03-02T14:39:20.325Z,101336.38
2023-03-02T14:41:53.285Z,101331.00
2023-03-02T14:44:21.067Z,101328.44
2023-03-02T14:46:47.614Z,101333.81
2023-03-02T14:49:14.266Z,101333.88
2023-03-02T14:51:43.265Z,101330.53
2023-03-02T14:54:15.446Z,101331.44
2023-03-02T14:56:43.065Z,101325.06
2023-03-02T14:59:13.700Z,101317.88
2023-03-02T15:01:41.266Z,101322.16
2023-03-02T15:04:07.762Z,101317.06
2023-03-02T15:06:38.492Z,101313.75
2023-03-02T15:09:05.600Z,101318.31
2023-03-02T15:11:33.536Z,101316.78
2023-03-02T15:14:00.270Z,101315.13
2023-03-02T15:16:26.817Z,101313.41
2023-03-02T15:18:53.907Z,101315.13
2023-03-02T15:21:23.899Z,101312.50
2023-03-02T15:23:50.989Z,101310.84
2023-03-02T15:26:17.708Z,101309.03
2023-03-02T15:28:47.440Z,101315.94
2023-03-02T15:31:16.316Z,101305.19
2023-03-02T15:33:45.137Z,101315.69
2023-03-02T15:36:12.998Z,101308.63
2023-03-02T15:38:39.736Z,101306.00
2023-03-02T15:41:09.001Z,101306.84
2023-03-02T15:43:35.655Z,101303.06
2023-03-02T15:46:02.564Z,101307.25
2023-03-02T15:48:30.179Z,101298.22
2023-03-02T15:51:02.088Z,101316.19
2023-03-02T15:53:30.113Z,101307.25
2023-03-02T15:55:57.104Z,101306.13
2023-03-02T15:58:24.383Z,101305.03
2023-03-02T16:00:54.708Z,101301.44
2023-03-02T16:03:23.233Z,101301.44
2023-03-02T16:05:50.071Z,101299.56
2023-03-02T16:08:16.752Z,101306.25
2023-03-02T16:10:43.520Z,101298.16
2023-03-02T16:13:13.176Z,101297.94
2023-03-02T16:15:40.856Z,101301.16
2023-03-02T16:18:08.812Z,101305.38
2023-03-02T16:20:36.249Z,101314.03
2023-03-02T16:23:06.052Z,101305.91
2023-03-02T16:25:34.598Z,101310.16
2023-03-02T16:28:03.246Z,101306.63
2023-03-02T16:30:30.793Z,101321.31
2023-03-02T16:32:59.081Z,101321.84
2023-03-02T16:35:26.726Z,101316.47
2023-03-02T16:37:53.250Z,101316.28
2023-03-02T16:40:19.902Z,101310.91
2023-03-02T16:42:46.745Z,101319.44
2023-03-02T16:45:13.273Z,101318.19
2023-03-02T16:47:39.919Z,101321.97
2023-03-02T16:50:07.530Z,101319.69
2023-03-02T16:52:34.138Z,101315.16
2023-03-02T16:55:00.711Z,101320.22
2023-03-02T16:57:27.368Z,101317.44
2023-03-02T16:59:53.886Z,101313.72
2023-03-02T17:02:20.370Z,101316.06
2023-03-02T17:04:46.955Z,101316.91
2023-03-02T17:07:13.726Z,101313.38
2023-03-02T17:09:41.455Z,101315.16
2023-03-02T17:12:08.598Z,101323.69
2023-03-02T17:14:35.050Z,101326.06
2023-03-02T17:17:04.113Z,101318.97
2023-03-02T17:19:30.672Z,101325.00
2023-03-02T17:21:59.750Z,101330.56
2023-03-02T17:24:27.963Z,101332.34
2023-03-02T17:26:55.070Z,101339.47
2023-03-02T17:29:22.507Z,101342.03
2023-03-02T17:31:49.240Z,101350.03
2023-03-02T17:34:15.714Z,101355.09
2023-03-02T17:36:42.371Z,101358.38
2023-03-02T17:39:09.032Z,101366.16
2023-03-02T17:41:37.536Z,101364.03
2023-03-02T17:44:04.804Z,101364.53
2023-03-02T17:46:32.679Z,101368.44
2023-03-02T17:49:00.581Z,101359.47
2023-03-02T17:51:29.008Z,101375.88
2023-03-02T17:53:56.467Z,101377.50
2023-03-02T17:56:26.597Z,101376.69
2023-03-02T17:59:01.389Z,101374.09
2023-03-02T18:01:29.041Z,101379.47
2023-03-02T18:03:56.188Z,101365.56
2023-03-02T18:06:22.771Z,101372.75
2023-03-02T18:08:51.137Z,101375.56
2023-03-02T18:11:20.762Z,101372.69
2023-03-02T18:13:47.598Z,101379.81
2023-03-02T18:16:14.767Z,101375.56
2023-03-02T18:18:41.340Z,101383.56
2023-03-02T18:21:07.896Z,101380.13
2023-03-02T18:23:34.504Z,101380.31
2023-03-02T18:26:01.032Z,101385.53
2023-03-02T18:28:27.765Z,101396.72
2023-03-02T18:30:54.378Z,101398.53
2023-03-02T18:33:20.970Z,101402.84
2023-03-02T18:35:47.507Z,101386.41
2023-03-02T18:38:13.917Z,101395.00
2023-03-02T18:40:40.559Z,101401.03
2023-03-02T18:43:07.365Z,101403.56
2023-03-02T18:45:33.995Z,101397.28
2023-03-02T18:48:00.880Z,101400.53
2023-03-02T18:50:28.753Z,101396.63
2023-03-02T18:52:55.371Z,101400.72
2023-03-02T18:55:24.411Z,101391.97
2023-03-02T18:57:53.872Z,101398.09
2023-03-02T19:00:26.676Z,101399.81
2023-03-02T19:02:54.543Z,101394.66
2023-03-02T19:05:21.407Z,101395.72
2023-03-02T19:07:49.912Z,101392.38
2023-03-02T19:10:17.010Z,101389.78
2023-03-02T19:12:43.562Z,101395.16
2023-03-02T19:15:13.199Z,101396.22
2023-03-02T19:17:42.513Z,101395.31
2023-03-02T19:20:14.370Z,101399.00
2023-03-02T19:22:40.941Z,101394.81
2023-03-02T19:25:08.783Z,101394.03
2023-03-02T19:27:35.411Z,101392.22
2023-03-02T19:30:02.059Z,101394.03
2023-03-02T19:32:28.661Z,101394.03
2023-03-02T19:34:56.536Z,101395.91
2023-03-02T19:37:23.015Z,101399.09
2023-03-02T19:39:49.711Z,101408.25
2023-03-02T19:42:16.298Z,101401.88
2023-03-02T19:44:42.754Z,101406.09
2023-03-02T19:47:09.369Z,101404.22
2023-03-02T19:49:37.756Z,101402.34
2023-03-02T19:52:05.154Z,101396.22
2023-03-02T19:54:31.711Z,101405.69
2023-03-02T19:56:58.274Z,101405.44
2023-03-02T19:59:26.893Z,101403.63
2023-03-02T20:01:55.059Z,101405.25
2023-03-02T20:04:21.674Z,101405.34
2023-03-02T20:06:48.387Z,101404.47
2023-03-02T20:09:20.240Z,101401.03
2023-03-02T20:11:50.170Z,101401.03
2023-03-02T20:14:31.276Z,101394.16
2023-03-02T20:16:59.625Z,101397.84
2023-03-02T20:19:27.247Z,101394.44
2023-03-02T20:21:54.193Z,101404.13
2023-03-02T20:24:20.941Z,101407.75
2023-03-02T20:26:50.700Z,101402.50
2023-03-02T20:29:17.275Z,101405.28
2023-03-02T20:31:44.876Z,101411.41
2023-03-02T20:34:15.903Z,101417.38
2023-03-02T20:36:45.066Z,101421.72
2023-03-02T20:39:24.864Z,101425.31
2023-03-02T20:41:52.138Z,101416.56
2023-03-02T20:44:20.322Z,101426.19
2023-03-02T20:46:51.348Z,101428.00
2023-03-02T20:49:18.358Z,101425.47
2023-03-02T20:51:52.617Z,101442.88
2023-03-02T20:54:27.013Z,101443.50
2023-03-02T20:56:54.121Z,101443.34
2023-03-02T20:59:21.264Z,101426.69
2023-03-02T21:01:47.919Z,101435.34
2023-03-02T21:04:14.454Z,101436.25
2023-03-02T21:06:41.203Z,101433.31
2023-03-02T21:09:09.314Z,101431.31
2023-03-02T21:11:37.205Z,101423.41
2023-03-02T21:14:04.424Z,101430.34
2023-03-02T21:16:35.994Z,101429.34
2023-03-02T21:19:04.808Z,101433.69
2023-03-02T21:21:41.131Z,101425.03
2023-03-02T21:24:16.586Z,101430.59
2023-03-02T21:26:47.011Z,101428.16
2023-03-02T21:29:13.792Z,101426.44
2023-03-02T21:31:42.513Z,101426.25
2023-03-02T21:34:10.112Z,101423.25
2023-03-02T21:36:37.261Z,101429.91
2023-03-02T21:39:05.337Z,101423.38
2023-03-02T21:41:31.785Z,101420.59
2023-03-02T21:43:58.344Z,101417.00
2023-03-02T21:46:27.758Z,101417.88
2023-03-02T21:48:54.449Z,101410.13
2023-03-02T21:51:21.115Z,101405.72
2023-03-02T21:53:47.782Z,101407.34
2023-03-02T21:56:20.646Z,101417.63
2023-03-02T21:58:52.839Z,101413.13
2023-03-02T22:01:20.847Z,101423.31
2023-03-02T22:03:47.661Z,101421.19
2023-03-02T22:06:20.204Z,101420.97
2023-03-02T22:08:46.936Z,101418.44
2023-03-02T22:11:21.635Z,101409.53
2023-03-02T22:13:55.178Z,101412.91
2023-03-02T22:16:27.158Z,101406.75
2023-03-02T22:18:57.049Z,101401.53
2023-03-02T22:21:30.850Z,101405.84
2023-03-02T22:24:09.473Z,101417.28
2023-03-02T22:26:42.038Z,101405.22
2023-03-02T22:29:17.344Z,101420.09
2023-03-02T22:31:49.517Z,101413.06
2023-03-02T22:34:20.826Z,101410.28
2023-03-02T22:36:47.439Z,101413.81
2023-03-02T22:39:18.321Z,101394.63
2023-03-02T22:41:45.055Z,101402.09
2023-03-02T22:44:13.655Z,101404.25
2023-03-02T22:46:41.086Z,101388.97
2023-03-02T22:49:16.469Z,101393.41
2023-03-02T22:51:44.919Z,101397.16
2023-03-02T22:54:21.561Z,101397.41
2023-03-02T22:56:51.685Z,101400.03
2023-03-02T22:59:28.313Z,101394.88
2023-03-02T23:02:02.400Z,101390.72
2023-03-02T23:04:36.514Z,101390.09
2023-03-02T23:07:18.213Z,101395.53
2023-03-02T23:09:45.198Z,101396.31
2023-03-02T23:12:21.240Z,101393.69
2023-03-02T23:14:51.141Z,101403.34
2023-03-02T23:17:22.643Z,101396.31
2023-03-02T23:19:51.234Z,101396.22
2023-03-02T23:22:18.052Z,101395.41
2023-03-02T23:24:44.596Z,101389.31
2023-03-02T23:27:11.480Z,101382.09
2023-03-02T23:29:38.063Z,101374.19
2023-03-02T23:32:04.794Z,101373.28
2023-03-02T23:34:31.446Z,101381.19
2023-03-02T23:36:59.021Z,101361.91
2023-03-02T23:39:26.224Z,101366.44
2023-03-02T23:41:53.014Z,101365.78
2023-03-02T23:44:20.304Z,101364.19
2023-03-02T23:46:47.755Z,101364.34
2023-03-02T23:49:14.376Z,101370.34
2023-03-02T23:51:40.932Z,101361.72
2023-03-02T23:54:07.951Z,101357.28
2023-03-02T23:56:35.146Z,101358.28
2023-03-02T23:59:02.466Z,101356.66
